Time;durP1;ratioP1;P1;durP2;ratioP2;P2;SDS_P1;SDS_P2;PMS_P1;PMS_P2;Temp;Humidity;BMP_temperature;BMP_pressure;BME280_temperature;BME280_humidity;BME280_pressure;Samples;Min_cycle;Max_cycle;Signal;HPM_P1;HPM_P2
2022/03/09 00:01:56;;;;;;;7.20;3.80;;;6.70;44.00;;;;;;5048806;28;20189;-76
2022/03/09 00:04:22;;;;;;;4.63;4.22;;;6.70;43.90;;;;;;5045068;28;20173;-76
2022/03/09 00:06:47;;;;;;;4.83;4.30;;;6.70;44.00;;;;;;5044789;28;20177;-76
2022/03/09 00:09:14;;;;;;;5.60;4.77;;;6.60;44.30;;;;;;5045735;28;20180;-76
2022/03/09 00:11:41;;;;;;;5.05;4.50;;;6.70;44.60;;;;;;5048904;28;20961;-76
2022/03/09 00:14:07;;;;;;;7.05;4.70;;;6.60;44.50;;;;;;5028531;28;20193;-77
2022/03/09 00:16:32;;;;;;;7.00;4.63;;;6.60;45.40;;;;;;5024105;28;20208;-76
2022/03/09 00:18:58;;;;;;;6.70;4.03;;;6.60;44.90;;;;;;5042667;28;20568;-76
2022/03/09 00:21:24;;;;;;;7.00;5.57;;;6.60;45.20;;;;;;5042311;28;20579;-77
2022/03/09 00:23:50;;;;;;;6.10;4.60;;;6.60;45.70;;;;;;5044768;28;20582;-77
2022/03/09 00:26:16;;;;;;;6.63;5.27;;;6.60;45.70;;;;;;5045685;28;20177;-76
2022/03/09 00:28:41;;;;;;;4.80;3.90;;;6.60;45.30;;;;;;5028167;28;20211;-76
2022/03/09 00:31:08;;;;;;;6.53;4.75;;;6.60;44.90;;;;;;5043595;28;20637;-76
2022/03/09 00:33:34;;;;;;;5.70;3.40;;;6.50;44.90;;;;;;5023637;28;20204;-77
2022/03/09 00:36:00;;;;;;;6.03;4.25;;;6.50;44.60;;;;;;5046206;28;20611;-76
2022/03/09 00:38:26;;;;;;;5.95;5.30;;;6.50;44.60;;;;;;5050927;28;20200;-76
2022/03/09 00:40:52;;;;;;;7.50;4.73;;;6.50;45.10;;;;;;5043900;28;20177;-76
2022/03/09 00:43:18;;;;;;;4.80;3.97;;;6.40;45.00;;;;;;5046471;28;20688;-76
2022/03/09 00:45:44;;;;;;;5.27;4.30;;;6.40;45.70;;;;;;5028865;28;20250;-76
2022/03/09 00:48:10;;;;;;;5.43;4.45;;;6.40;45.30;;;;;;5044506;28;20189;-75
2022/03/09 00:50:36;;;;;;;6.33;4.30;;;6.40;44.90;;;;;;5024575;28;20192;-76
2022/03/09 00:53:02;;;;;;;5.47;4.30;;;6.40;45.10;;;;;;5042962;28;20596;-76
2022/03/09 00:55:28;;;;;;;7.55;4.40;;;6.40;45.40;;;;;;5041323;28;20192;-76
2022/03/09 00:57:54;;;;;;;6.17;4.37;;;6.40;45.80;;;;;;5044872;28;20771;-76
2022/03/09 01:00:19;;;;;;;6.27;4.30;;;6.40;45.70;;;;;;5043626;28;20585;-76
2022/03/09 01:02:46;;;;;;;4.40;4.00;;;6.40;45.00;;;;;;5045692;28;20221;-76
2022/03/09 01:05:13;;;;;;;6.80;4.05;;;6.40;45.00;;;;;;5044356;28;20713;-76
2022/03/09 01:07:39;;;;;;;4.90;4.40;;;6.30;45.00;;;;;;5041076;28;20557;-76
2022/03/09 01:10:06;;;;;;;7.35;4.25;;;6.30;45.80;;;;;;5039939;28;20177;-76
2022/03/09 01:12:33;;;;;;;5.50;4.70;;;6.30;45.20;;;;;;5040255;28;20208;-76
2022/03/09 01:14:58;;;;;;;6.38;4.60;;;6.30;45.90;;;;;;5024997;28;20236;-76
2022/03/09 01:17:26;;;;;;;7.20;3.63;;;6.30;46.10;;;;;;5045493;28;20200;-76
2022/03/09 01:19:53;;;;;;;6.38;4.40;;;6.20;45.30;;;;;;5040510;28;20181;-76
2022/03/09 01:22:19;;;;;;;4.60;4.00;;;6.20;45.40;;;;;;5043296;28;20193;-76
2022/03/09 01:24:45;;;;;;;4.85;4.25;;;6.20;45.30;;;;;;5037348;28;20166;-76
2022/03/09 01:27:11;;;;;;;6.47;3.93;;;6.20;45.70;;;;;;5040098;28;20554;-76
2022/03/09 01:29:36;;;;;;;6.67;3.90;;;6.20;45.70;;;;;;5043185;28;20572;-75
2022/03/09 01:32:03;;;;;;;5.53;3.50;;;6.10;45.70;;;;;;5040328;28;20607;-76
2022/03/09 01:34:28;;;;;;;5.25;3.78;;;6.10;45.80;;;;;;5024105;28;20620;-76
2022/03/09 01:36:54;;;;;;;8.03;4.73;;;6.10;46.10;;;;;;5043744;28;20255;-76
2022/03/09 01:39:20;;;;;;;5.75;4.43;;;6.10;45.20;;;;;;5043555;28;20177;-76
2022/03/09 01:41:46;;;;;;;5.07;4.47;;;6.10;45.50;;;;;;5041010;28;20561;-76
2022/03/09 01:44:14;;;;;;;6.65;4.47;;;6.10;45.40;;;;;;5043687;28;20268;-77
2022/03/09 01:46:41;;;;;;;4.70;4.03;;;6.00;45.70;;;;;;5025094;28;20586;-76
2022/03/09 01:49:09;;;;;;;4.68;3.92;;;6.00;46.30;;;;;;5042496;28;20268;-76
2022/03/09 01:51:37;;;;;;;5.90;4.28;;;6.00;45.50;;;;;;5050472;28;20232;-75
2022/03/09 01:54:04;;;;;;;5.57;4.05;;;5.90;46.60;;;;;;5049841;28;20194;-75
2022/03/09 01:56:31;;;;;;;6.18;4.15;;;6.00;46.50;;;;;;5034887;28;20205;-77
2022/03/09 01:58:57;;;;;;;11.10;5.07;;;5.90;46.60;;;;;;5046788;28;20186;-78
2022/03/09 02:01:23;;;;;;;7.20;3.58;;;5.90;46.20;;;;;;5041891;28;20680;-77
2022/03/09 02:03:49;;;;;;;4.10;3.17;;;5.90;45.70;;;;;;5045595;28;20185;-77
2022/03/09 02:06:15;;;;;;;4.88;3.72;;;5.90;45.90;;;;;;5045167;28;20670;-77
2022/03/09 02:11:28;;;;;;;5.28;4.50;;;5.90;45.60;;;;;;5057138;28;20571;-77
2022/03/09 02:13:54;;;;;;;4.70;3.85;;;5.90;45.60;;;;;;5052173;28;20173;-78
2022/03/09 02:16:19;;;;;;;4.40;3.43;;;5.80;46.10;;;;;;5044769;28;20713;-78
2022/03/09 02:18:45;;;;;;;4.20;3.10;;;5.80;45.50;;;;;;5039951;28;20178;-78
2022/03/09 02:21:15;;;;;;;5.00;3.00;;;5.70;45.70;;;;;;5037972;28;20165;-78
2022/03/09 02:23:41;;;;;;;3.67;3.35;;;5.70;45.50;;;;;;5038947;28;20342;-78
2022/03/09 02:26:06;;;;;;;5.83;3.53;;;5.70;45.50;;;;;;5044009;28;20273;-77
2022/03/09 02:28:38;;;;;;;4.10;3.30;;;5.70;45.50;;;;;;5040189;28;20178;-77
2022/03/09 02:31:04;;;;;;;4.10;2.85;;;5.60;45.60;;;;;;5043109;28;20177;-77
2022/03/09 02:33:30;;;;;;;4.95;3.30;;;5.60;45.50;;;;;;5045217;28;20721;-77
2022/03/09 02:35:56;;;;;;;4.43;3.13;;;5.60;45.60;;;;;;5026675;28;20236;-76
2022/03/09 02:38:22;;;;;;;6.13;4.30;;;5.60;45.80;;;;;;5045830;28;20670;-77
2022/03/09 02:40:48;;;;;;;5.93;3.80;;;5.50;46.30;;;;;;5040113;28;20653;-77
2022/03/09 02:43:14;;;;;;;4.90;3.90;;;5.50;46.30;;;;;;5040782;28;20208;-77
2022/03/09 02:45:40;;;;;;;4.80;3.83;;;5.50;47.00;;;;;;5041910;28;20193;-77
2022/03/09 02:48:05;;;;;;;5.90;4.07;;;5.40;47.00;;;;;;5039203;28;20169;-77
2022/03/09 02:50:33;;;;;;;11.05;4.18;;;5.40;46.90;;;;;;5037893;28;20335;-77
2022/03/09 02:52:58;;;;;;;6.00;4.20;;;5.40;46.50;;;;;;5041721;28;20895;-77
2022/03/09 02:55:24;;;;;;;4.37;3.70;;;5.40;46.20;;;;;;5042002;28;20636;-77
2022/03/09 02:57:51;;;;;;;5.00;4.05;;;5.40;46.20;;;;;;5042602;28;20628;-77
2022/03/09 03:00:16;;;;;;;5.47;3.87;;;5.40;46.70;;;;;;5039388;28;20586;-77
2022/03/09 03:02:42;;;;;;;4.30;3.00;;;5.40;46.50;;;;;;5021106;28;20281;-77
2022/03/09 03:05:09;;;;;;;5.27;3.97;;;5.40;46.60;;;;;;5041126;28;21169;-76
2022/03/09 03:07:35;;;;;;;7.75;3.90;;;5.40;47.00;;;;;;5042727;28;20581;-77
2022/03/09 03:10:02;;;;;;;4.55;3.80;;;5.40;46.90;;;;;;5038088;28;20249;-77
2022/03/09 03:12:28;;;;;;;4.53;3.70;;;5.40;46.60;;;;;;5024935;28;20254;-76
2022/03/09 03:14:54;;;;;;;7.10;3.87;;;5.40;46.80;;;;;;5038711;28;20184;-77
2022/03/09 03:17:19;;;;;;;4.40;4.00;;;5.30;47.10;;;;;;5039804;28;20534;-77
2022/03/09 03:19:45;;;;;;;4.53;3.80;;;5.30;46.90;;;;;;5039178;28;20169;-77
2022/03/09 03:22:11;;;;;;;5.10;3.47;;;5.30;46.80;;;;;;5042029;28;20728;-77
2022/03/09 03:24:37;;;;;;;6.17;4.27;;;5.30;46.60;;;;;;5038363;28;20651;-76
2022/03/09 03:27:02;;;;;;;4.67;3.00;;;5.30;46.40;;;;;;5041743;28;20207;-77
2022/03/09 03:29:28;;;;;;;5.73;4.50;;;5.30;46.40;;;;;;5038460;28;20614;-77
2022/03/09 03:31:54;;;;;;;7.80;4.00;;;5.30;46.80;;;;;;5041441;28;20231;-77
2022/03/09 03:34:19;;;;;;;5.83;4.10;;;5.30;47.30;;;;;;5040711;28;20309;-77
2022/03/09 03:36:45;;;;;;;4.93;3.60;;;5.30;46.90;;;;;;5039649;28;20323;-77
2022/03/09 03:39:13;;;;;;;6.23;4.20;;;5.30;47.20;;;;;;5025017;28;20234;-77
2022/03/09 03:41:39;;;;;;;7.55;4.18;;;5.30;47.20;;;;;;5038613;28;20284;-77
2022/03/09 03:44:04;;;;;;;6.13;4.00;;;5.30;46.90;;;;;;5046422;28;20661;-76
2022/03/09 03:46:30;;;;;;;5.57;3.73;;;5.30;47.00;;;;;;5039731;28;20196;-77
2022/03/09 03:48:56;;;;;;;4.40;3.87;;;5.30;46.90;;;;;;5035927;28;20254;-77
2022/03/09 03:51:22;;;;;;;6.17;3.50;;;5.30;47.50;;;;;;5036348;28;20177;-77
2022/03/09 03:53:47;;;;;;;5.40;4.40;;;5.20;47.80;;;;;;5041665;28;20177;-77
2022/03/09 03:56:13;;;;;;;5.50;3.70;;;5.30;47.20;;;;;;5041585;28;20202;-77
2022/03/09 03:58:39;;;;;;;5.73;4.20;;;5.30;47.80;;;;;;5045032;28;20185;-77
2022/03/09 04:01:04;;;;;;;4.70;4.00;;;5.30;47.10;;;;;;5028003;28;20204;-77
2022/03/09 04:03:30;;;;;;;4.63;3.57;;;5.30;47.20;;;;;;5038446;28;20193;-77
2022/03/09 04:05:56;;;;;;;4.50;2.83;;;5.20;47.60;;;;;;5041230;28;20631;-77
2022/03/09 04:08:22;;;;;;;4.23;2.83;;;5.20;47.00;;;;;;5042358;28;20634;-77
2022/03/09 04:10:47;;;;;;;6.60;4.57;;;5.20;47.40;;;;;;5042024;28;20960;-77
2022/03/09 04:13:13;;;;;;;4.63;3.70;;;5.20;48.00;;;;;;5043787;28;20607;-77
2022/03/09 04:15:39;;;;;;;5.80;3.60;;;5.20;47.60;;;;;;5044509;28;20188;-77
2022/03/09 04:18:05;;;;;;;5.00;3.90;;;5.20;47.80;;;;;;5048667;28;20200;-77
2022/03/09 04:20:31;;;;;;;5.78;4.20;;;5.10;48.70;;;;;;5046273;28;20180;-77
2022/03/09 04:22:57;;;;;;;5.70;4.63;;;5.10;48.60;;;;;;5046571;28;20588;-77
2022/03/09 04:25:23;;;;;;;7.20;4.60;;;5.10;49.10;;;;;;5043932;28;20588;-77
2022/03/09 04:27:49;;;;;;;6.25;4.07;;;5.10;48.30;;;;;;5025147;28;20196;-77
2022/03/09 04:30:14;;;;;;;5.00;4.07;;;5.10;48.60;;;;;;5044565;28;20181;-78
2022/03/09 04:32:40;;;;;;;4.80;3.20;;;5.10;48.00;;;;;;5020802;28;20628;-77
2022/03/09 04:35:06;;;;;;;5.93;4.20;;;5.10;48.10;;;;;;5043649;28;20183;-77
2022/03/09 04:37:33;;;;;;;7.65;4.15;;;5.10;48.30;;;;;;5005494;28;20947;-78
2022/03/09 04:40:03;;;;;;;5.53;4.15;;;5.00;48.10;;;;;;5045241;28;20182;-78
2022/03/09 04:42:30;;;;;;;5.88;4.50;;;5.00;48.90;;;;;;5022471;28;20197;-77
2022/03/09 04:44:57;;;;;;;11.27;4.22;;;5.00;48.30;;;;;;5044986;28;20494;-77
2022/03/09 04:47:24;;;;;;;5.35;4.35;;;5.00;48.00;;;;;;5038257;28;20202;-77
2022/03/09 04:49:51;;;;;;;5.85;3.92;;;4.90;48.60;;;;;;5042415;28;20165;-77
2022/03/09 04:52:18;;;;;;;4.40;3.90;;;4.90;48.30;;;;;;5041327;28;20196;-77
2022/03/09 04:54:44;;;;;;;5.80;4.28;;;4.90;48.60;;;;;;5038076;28;20173;-76
2022/03/09 04:57:10;;;;;;;4.40;3.30;;;4.90;47.90;;;;;;5044094;28;20211;-76
2022/03/09 04:59:35;;;;;;;5.17;3.43;;;4.90;47.90;;;;;;5032942;28;20615;-76
2022/03/09 05:02:01;;;;;;;8.30;4.50;;;4.90;48.40;;;;;;5040425;28;20201;-76
2022/03/09 05:04:27;;;;;;;4.45;3.45;;;4.90;49.00;;;;;;5043509;28;20242;-76
2022/03/09 05:06:53;;;;;;;5.70;3.40;;;4.90;48.80;;;;;;5047767;28;20186;-76
2022/03/09 05:09:18;;;;;;;3.50;3.10;;;4.90;48.10;;;;;;5057166;28;20173;-77
2022/03/09 05:11:44;;;;;;;6.13;2.90;;;4.90;48.10;;;;;;5046778;28;20197;-76
2022/03/09 05:14:10;;;;;;;7.40;3.77;;;4.80;48.40;;;;;;5044219;28;20829;-76
2022/03/09 05:16:35;;;;;;;4.73;3.40;;;4.90;48.30;;;;;;5039521;28;20296;-76
2022/03/09 05:19:02;;;;;;;3.47;2.90;;;4.80;48.20;;;;;;5039467;28;20183;-78
2022/03/09 05:21:29;;;;;;;5.10;3.65;;;4.80;47.90;;;;;;5043808;28;20594;-76
2022/03/09 05:23:55;;;;;;;6.40;4.07;;;4.80;48.30;;;;;;5043720;28;20177;-76
2022/03/09 05:26:21;;;;;;;5.07;3.60;;;4.80;48.40;;;;;;5042501;28;20181;-75
2022/03/09 05:28:47;;;;;;;4.67;3.20;;;4.80;48.20;;;;;;5046664;28;20187;-76
2022/03/09 05:31:13;;;;;;;6.65;3.90;;;4.80;48.20;;;;;;5039828;28;20178;-76
2022/03/09 05:33:39;;;;;;;5.15;3.58;;;4.80;48.40;;;;;;5037047;28;20188;-76
2022/03/09 05:36:05;;;;;;;5.17;4.57;;;4.80;48.70;;;;;;5053982;28;20193;-76
2022/03/09 05:38:31;;;;;;;4.67;4.23;;;4.80;48.30;;;;;;5026737;28;20595;-76
2022/03/09 05:40:57;;;;;;;6.93;4.93;;;4.70;48.30;;;;;;5040560;28;20181;-76
2022/03/09 05:43:23;;;;;;;6.25;4.65;;;4.70;48.80;;;;;;5038861;28;20200;-76
2022/03/09 05:45:49;;;;;;;6.75;3.70;;;4.70;48.90;;;;;;5046537;28;20195;-78
2022/03/09 05:48:14;;;;;;;7.40;4.00;;;4.70;48.80;;;;;;5043876;28;20255;-79
2022/03/09 05:50:40;;;;;;;5.90;3.50;;;4.80;48.60;;;;;;5039393;28;20188;-77
2022/03/09 05:53:06;;;;;;;5.50;3.47;;;4.70;48.50;;;;;;5041980;28;20203;-77
2022/03/09 05:55:31;;;;;;;5.37;4.13;;;4.70;48.20;;;;;;5040224;28;20284;-77
2022/03/09 05:57:57;;;;;;;4.37;3.53;;;4.70;49.10;;;;;;5024249;28;20582;-77
2022/03/09 06:00:23;;;;;;;5.40;3.60;;;4.70;48.60;;;;;;5038398;28;20182;-77
2022/03/09 06:02:49;;;;;;;7.17;3.60;;;4.70;48.30;;;;;;5043342;28;20184;-77
2022/03/09 06:05:14;;;;;;;5.47;3.90;;;4.70;48.90;;;;;;5040542;28;20541;-77
2022/03/09 06:07:40;;;;;;;7.10;4.40;;;4.70;48.60;;;;;;5044795;28;20181;-76
2022/03/09 06:10:07;;;;;;;5.73;4.20;;;4.70;48.70;;;;;;5042293;28;20579;-76
2022/03/09 06:12:32;;;;;;;4.30;3.20;;;4.70;48.80;;;;;;5052024;28;20197;-76
2022/03/09 06:14:58;;;;;;;4.97;3.37;;;4.70;48.60;;;;;;5047377;28;20634;-76
2022/03/09 06:17:24;;;;;;;8.03;4.07;;;4.70;48.40;;;;;;5042348;28;20179;-77
2022/03/09 06:19:50;;;;;;;5.75;3.55;;;4.70;48.20;;;;;;5038818;28;20172;-76
2022/03/09 06:22:16;;;;;;;5.37;3.70;;;4.70;48.20;;;;;;5041907;28;20201;-77
2022/03/09 06:24:41;;;;;;;6.13;4.37;;;4.80;48.40;;;;;;5026532;28;20295;-77
2022/03/09 06:27:07;;;;;;;6.40;4.57;;;4.70;48.70;;;;;;5043026;28;20705;-76
2022/03/09 06:29:33;;;;;;;5.10;4.60;;;4.70;48.50;;;;;;5041951;28;20188;-77
2022/03/09 06:32:00;;;;;;;4.50;3.47;;;4.70;49.00;;;;;;5041931;28;20205;-76
2022/03/09 06:34:27;;;;;;;6.88;3.78;;;4.70;48.70;;;;;;5056577;28;20172;-77
2022/03/09 06:36:53;;;;;;;5.22;4.53;;;4.70;49.00;;;;;;5055831;28;20208;-76
2022/03/09 06:39:20;;;;;;;6.53;4.47;;;4.70;49.10;;;;;;5059650;28;20156;-76
2022/03/09 06:41:46;;;;;;;4.90;3.97;;;4.70;48.80;;;;;;5045456;28;20287;-76
2022/03/09 06:44:14;;;;;;;6.40;4.75;;;4.70;49.50;;;;;;5045059;28;20188;-76
2022/03/09 06:46:41;;;;;;;7.50;5.28;;;4.80;49.10;;;;;;5044662;28;20658;-76
2022/03/09 06:49:07;;;;;;;6.15;4.95;;;4.80;49.60;;;;;;5042019;28;20188;-75
2022/03/09 06:51:33;;;;;;;11.70;5.05;;;4.80;49.50;;;;;;5048125;28;20206;-75
2022/03/09 06:54:00;;;;;;;6.53;4.82;;;4.80;49.70;;;;;;5048980;28;20208;-76
2022/03/09 06:56:30;;;;;;;6.28;4.05;;;4.90;49.80;;;;;;5046260;28;20198;-76
2022/03/09 06:58:55;;;;;;;6.57;5.13;;;4.90;50.10;;;;;;5044930;28;20532;-77
2022/03/09 07:01:21;;;;;;;8.80;4.63;;;5.00;49.40;;;;;;5041206;28;20567;-77
2022/03/09 07:03:47;;;;;;;7.35;4.80;;;5.00;49.40;;;;;;5038533;28;20694;-75
2022/03/09 07:06:13;;;;;;;6.40;4.87;;;5.00;49.80;;;;;;5031302;28;20684;-73
2022/03/09 07:08:38;;;;;;;5.50;4.67;;;5.10;49.90;;;;;;5038811;28;20561;-73
2022/03/09 07:11:04;;;;;;;7.87;5.50;;;5.10;49.70;;;;;;5039452;28;20764;-74
2022/03/09 07:13:30;;;;;;;5.60;3.80;;;5.20;49.80;;;;;;5035622;28;20268;-75
2022/03/09 07:15:55;;;;;;;9.20;5.43;;;5.30;49.60;;;;;;5039063;28;20209;-74
2022/03/09 07:18:21;;;;;;;8.47;4.90;;;5.30;49.70;;;;;;5037894;28;20172;-74
2022/03/09 07:20:47;;;;;;;8.23;4.80;;;5.40;49.80;;;;;;5038962;28;20669;-75
2022/03/09 07:23:13;;;;;;;6.10;5.50;;;5.40;49.60;;;;;;5037279;28;20605;-75
2022/03/09 07:25:40;;;;;;;8.10;5.13;;;5.50;49.80;;;;;;5039636;28;20579;-75
2022/03/09 07:28:06;;;;;;;6.40;4.68;;;5.50;49.70;;;;;;5041560;28;20582;-76
2022/03/09 07:30:32;;;;;;;9.03;4.17;;;5.60;49.90;;;;;;5037253;28;20601;-77
2022/03/09 07:32:57;;;;;;;4.87;4.10;;;5.70;49.70;;;;;;5054808;28;20196;-75
2022/03/09 07:35:23;;;;;;;9.50;5.33;;;5.80;49.80;;;;;;5042059;28;20696;-75
2022/03/09 07:37:52;;;;;;;5.43;4.90;;;5.90;50.00;;;;;;5033439;28;20178;-76
2022/03/09 07:40:18;;;;;;;8.80;4.70;;;6.00;49.80;;;;;;5041250;28;20579;-76
2022/03/09 07:42:45;;;;;;;8.85;4.43;;;6.10;49.60;;;;;;5039333;28;20185;-76
2022/03/09 07:45:11;;;;;;;7.80;5.90;;;6.20;49.70;;;;;;5016158;28;20187;-76
2022/03/09 07:47:37;;;;;;;7.07;5.30;;;6.30;49.60;;;;;;5043076;28;20595;-76
2022/03/09 07:50:05;;;;;;;8.23;6.00;;;6.40;49.60;;;;;;5024240;28;20580;-77
2022/03/09 07:52:32;;;;;;;9.57;6.15;;;6.40;49.40;;;;;;5039060;28;20739;-76
2022/03/09 07:54:58;;;;;;;7.25;5.43;;;6.50;49.40;;;;;;5044832;28;20178;-81
2022/03/09 07:57:24;;;;;;;7.50;5.53;;;6.60;49.40;;;;;;5026486;28;20211;-77
2022/03/09 07:59:50;;;;;;;7.67;4.63;;;6.70;49.30;;;;;;5043185;28;20646;-76
2022/03/09 08:02:15;;;;;;;5.47;4.60;;;6.90;49.40;;;;;;5022764;28;20220;-76
2022/03/09 08:04:41;;;;;;;7.10;4.87;;;7.10;49.40;;;;;;5049281;28;20575;-75
2022/03/09 08:07:07;;;;;;;7.80;6.60;;;7.60;50.00;;;;;;5045948;28;20608;-76
2022/03/09 08:09:33;;;;;;;7.27;5.30;;;8.40;50.70;;;;;;5028006;28;20189;-75
2022/03/09 08:11:59;;;;;;;8.47;5.80;;;9.10;49.20;;;;;;5041795;28;20206;-75
2022/03/09 08:14:25;;;;;;;8.67;5.87;;;9.60;46.40;;;;;;5044374;28;20578;-75
2022/03/09 08:16:51;;;;;;;10.30;5.40;;;10.30;47.10;;;;;;5026293;28;20296;-76
2022/03/09 08:19:17;;;;;;;7.18;5.63;;;10.90;46.60;;;;;;5037437;28;20577;-77
2022/03/09 08:21:43;;;;;;;5.43;4.78;;;11.70;47.30;;;;;;5040514;28;20577;-77
2022/03/09 08:24:08;;;;;;;6.50;5.03;;;12.30;45.50;;;;;;5025650;28;20177;-77
2022/03/09 08:26:34;;;;;;;10.20;4.80;;;13.00;45.70;;;;;;5042631;28;20583;-78
2022/03/09 08:29:00;;;;;;;5.70;4.60;;;13.70;47.20;;;;;;5044184;28;20203;-78
2022/03/09 08:31:27;;;;;;;6.03;4.20;;;14.40;46.50;;;;;;5042423;28;20779;-79
2022/03/09 08:33:55;;;;;;;4.37;3.40;;;15.30;46.80;;;;;;5025273;28;20630;-77
2022/03/09 08:36:21;;;;;;;5.53;4.60;;;16.00;47.60;;;;;;5042433;28;20651;-76
2022/03/09 08:38:47;;;;;;;9.87;5.20;;;16.70;45.50;;;;;;5041024;28;20624;-77
2022/03/09 08:41:13;;;;;;;7.97;5.57;;;17.20;44.70;;;;;;5044482;28;21151;-77
2022/03/09 08:43:39;;;;;;;5.17;4.60;;;17.60;43.30;;;;;;5042500;28;20608;-79
2022/03/09 08:46:05;;;;;;;5.73;5.13;;;17.90;43.40;;;;;;5044501;28;20193;-79
2022/03/09 08:48:33;;;;;;;6.70;5.53;;;18.10;41.80;;;;;;5047851;28;20625;-77
2022/03/09 08:50:59;;;;;;;5.17;4.67;;;18.20;41.30;;;;;;5042582;28;20580;-78
2022/03/09 08:53:24;;;;;;;7.07;5.30;;;18.40;41.40;;;;;;5041364;28;20609;-78
2022/03/09 08:55:50;;;;;;;7.20;5.37;;;18.50;40.40;;;;;;5041870;28;20589;-77
2022/03/09 08:58:16;;;;;;;5.97;5.30;;;18.50;38.90;;;;;;5045424;28;20196;-78
2022/03/09 09:00:42;;;;;;;6.57;5.13;;;18.60;39.70;;;;;;5043587;28;20662;-76
2022/03/09 09:03:09;;;;;;;6.43;5.30;;;18.30;36.90;;;;;;5044220;28;21155;-78
2022/03/09 09:05:34;;;;;;;5.53;4.57;;;18.10;36.90;;;;;;5044052;28;21205;-77
2022/03/09 09:08:00;;;;;;;7.80;6.73;;;18.00;38.10;;;;;;5029656;28;20618;-78
2022/03/09 09:10:27;;;;;;;7.57;6.00;;;18.00;37.40;;;;;;5046092;28;20217;-78
2022/03/09 09:12:54;;;;;;;7.07;5.20;;;17.80;36.20;;;;;;5027544;28;20642;-77
2022/03/09 09:15:22;;;;;;;5.77;5.03;;;17.70;37.20;;;;;;5048628;28;20579;-77
2022/03/09 09:17:55;;;;;;;7.33;5.30;;;17.80;37.90;;;;;;5049430;28;20667;-78
2022/03/09 09:20:25;;;;;;;5.63;4.83;;;18.30;39.00;;;;;;5042242;28;20573;-77
2022/03/09 09:22:55;;;;;;;9.23;5.53;;;18.90;39.60;;;;;;5044622;28;20601;-77
2022/03/09 09:25:23;;;;;;;6.90;5.70;;;19.40;39.10;;;;;;5046224;28;20580;-77
2022/03/09 09:27:50;;;;;;;5.90;5.30;;;19.40;36.50;;;;;;5048219;28;21101;-77
2022/03/09 09:30:16;;;;;;;7.77;5.97;;;19.50;38.10;;;;;;5019101;28;20591;-77
2022/03/09 09:32:42;;;;;;;8.40;5.27;;;19.60;36.10;;;;;;5026404;28;20611;-77
2022/03/09 09:35:10;;;;;;;5.20;4.70;;;19.60;37.10;;;;;;5039963;28;20595;-77
2022/03/09 09:37:37;;;;;;;5.40;3.90;;;19.80;38.00;;;;;;5024148;28;20185;-77
2022/03/09 09:40:03;;;;;;;5.40;4.70;;;20.10;37.90;;;;;;5030611;28;20974;-76
2022/03/09 09:42:31;;;;;;;8.33;5.80;;;20.10;37.70;;;;;;5023917;28;20715;-76
2022/03/09 09:44:58;;;;;;;5.17;4.60;;;20.30;36.50;;;;;;5034479;28;20661;-76
2022/03/09 09:47:24;;;;;;;6.63;5.20;;;20.50;37.50;;;;;;5038491;28;20579;-76
2022/03/09 09:49:52;;;;;;;5.37;4.87;;;20.80;38.00;;;;;;5041379;28;20630;-76
2022/03/09 09:52:29;;;;;;;6.20;5.60;;;21.20;37.70;;;;;;5041222;28;20596;-76
2022/03/09 09:54:57;;;;;;;6.53;5.93;;;21.40;35.90;;;;;;5034018;28;20576;-76
2022/03/09 09:57:23;;;;;;;6.47;5.87;;;21.20;34.20;;;;;;5041666;28;21214;-77
2022/03/09 09:59:52;;;;;;;6.33;5.73;;;21.00;35.20;;;;;;5025073;28;20996;-76
2022/03/09 10:02:18;;;;;;;6.33;5.70;;;21.10;34.50;;;;;;5042369;28;20603;-76
2022/03/09 10:04:46;;;;;;;6.80;5.43;;;20.90;33.40;;;;;;5043499;28;20679;-76
2022/03/09 10:07:12;;;;;;;5.63;5.10;;;20.80;34.30;;;;;;5039811;28;20588;-77
2022/03/09 10:09:40;;;;;;;6.87;5.90;;;20.90;33.80;;;;;;5040361;28;20586;-76
2022/03/09 10:12:08;;;;;;;6.67;5.97;;;20.70;33.40;;;;;;5041081;28;20643;-76
2022/03/09 10:14:53;;;;;;;8.73;5.40;;;20.70;33.30;;;;;;5040744;28;20592;-76
2022/03/09 10:17:20;;;;;;;5.60;5.10;;;20.60;33.30;;;;;;5039249;28;20630;-76
2022/03/09 10:19:50;;;;;;;7.73;5.80;;;20.80;34.10;;;;;;5039820;28;20577;-76
2022/03/09 10:22:33;;;;;;;6.83;6.13;;;20.70;31.90;;;;;;5039404;28;20612;-77
2022/03/09 10:25:17;;;;;;;6.67;5.73;;;20.20;31.70;;;;;;5042193;28;21083;-76
2022/03/09 10:27:51;;;;;;;6.73;5.60;;;20.20;32.30;;;;;;5039765;28;20587;-76
2022/03/09 10:30:21;;;;;;;6.07;5.47;;;20.10;32.60;;;;;;5032809;28;20582;-76
2022/03/09 10:32:59;;;;;;;6.83;5.77;;;19.80;32.30;;;;;;5042890;28;20611;-76
2022/03/09 10:35:30;;;;;;;6.30;5.67;;;19.80;32.10;;;;;;5042859;28;20576;-76
2022/03/09 10:37:57;;;;;;;7.80;5.90;;;19.80;33.40;;;;;;5041418;28;20576;-76
2022/03/09 10:40:24;;;;;;;6.57;5.87;;;19.90;33.00;;;;;;5040362;28;20585;-78
2022/03/09 10:43:12;;;;;;;5.87;5.27;;;19.90;33.80;;;;;;5039290;28;20607;-77
2022/03/09 10:45:56;;;;;;;8.30;6.50;;;19.70;31.90;;;;;;5026320;28;21388;-75
2022/03/09 10:48:22;;;;;;;7.47;6.80;;;19.60;31.30;;;;;;5027763;28;20583;-75
2022/03/09 10:50:52;;;;;;;6.87;6.17;;;19.60;32.90;;;;;;5026091;28;20676;-75
2022/03/09 10:53:19;;;;;;;5.90;5.40;;;19.40;32.30;;;;;;5026972;28;20738;-76
2022/03/09 10:55:44;;;;;;;6.80;5.53;;;19.00;31.60;;;;;;5033534;28;20636;-76
2022/03/09 10:58:13;;;;;;;5.27;4.87;;;19.20;33.30;;;;;;5023062;28;20637;-76
2022/03/09 11:00:50;;;;;;;9.57;6.43;;;19.20;32.90;;;;;;5025641;28;20186;-77
2022/03/09 11:03:19;;;;;;;7.20;6.10;;;19.30;32.80;;;;;;5021420;28;20714;-76
2022/03/09 11:06:02;;;;;;;7.27;6.00;;;19.30;32.60;;;;;;5040951;28;20987;-77
2022/03/09 11:08:28;;;;;;;6.57;5.97;;;19.40;32.80;;;;;;5045385;28;20580;-76
2022/03/09 11:10:58;;;;;;;6.57;5.93;;;19.30;31.60;;;;;;5046466;28;20582;-76
2022/03/09 11:13:25;;;;;;;8.13;6.93;;;19.20;31.40;;;;;;5044825;28;20604;-75
2022/03/09 11:15:53;;;;;;;9.03;7.30;;;19.00;30.40;;;;;;5044521;28;20673;-75
2022/03/09 11:18:24;;;;;;;7.63;6.67;;;19.10;31.70;;;;;;5046596;28;20666;-75
2022/03/09 11:20:52;;;;;;;8.20;7.33;;;19.20;31.50;;;;;;5040181;28;20568;-75
2022/03/09 11:23:19;;;;;;;7.20;6.50;;;19.00;31.00;;;;;;5044049;28;20603;-75
2022/03/09 11:26:07;;;;;;;7.20;6.50;;;18.90;30.50;;;;;;5045389;28;20578;-76
2022/03/09 11:28:41;;;;;;;7.97;6.43;;;18.70;30.50;;;;;;5043227;28;20575;-75
2022/03/09 11:31:10;;;;;;;6.17;5.57;;;18.60;31.10;;;;;;5042927;28;20646;-75
2022/03/09 11:33:40;;;;;;;9.27;6.80;;;18.60;31.40;;;;;;5042624;28;20638;-76
2022/03/09 11:36:21;;;;;;;7.60;6.10;;;18.70;31.70;;;;;;5030469;28;20700;-76
2022/03/09 11:38:54;;;;;;;6.20;5.60;;;18.80;30.60;;;;;;5043464;28;20590;-76
2022/03/09 11:41:25;;;;;;;7.70;6.43;;;18.90;32.10;;;;;;5048495;28;20572;-76
2022/03/09 11:43:52;;;;;;;7.00;6.20;;;19.10;30.80;;;;;;5054335;28;20574;-76
2022/03/09 11:46:19;;;;;;;5.93;5.43;;;19.10;30.80;;;;;;5050472;28;20698;-76
2022/03/09 11:48:48;;;;;;;6.47;5.90;;;18.90;30.50;;;;;;5042838;28;20637;-77
2022/03/09 11:51:14;;;;;;;7.70;5.87;;;18.90;30.70;;;;;;5038898;28;20632;-76
2022/03/09 11:53:46;;;;;;;8.80;6.87;;;18.90;31.00;;;;;;5036858;28;20596;-75
2022/03/09 11:56:31;;;;;;;6.63;5.93;;;18.90;30.70;;;;;;5038334;28;20963;-76
2022/03/09 11:59:06;;;;;;;9.67;6.07;;;19.00;30.90;;;;;;5044468;28;20579;-76
2022/03/09 12:01:32;;;;;;;6.77;6.10;;;19.30;31.40;;;;;;5023662;28;20637;-77
2022/03/09 12:03:57;;;;;;;6.90;6.20;;;19.40;31.50;;;;;;5043173;28;20567;-77
2022/03/09 12:06:43;;;;;;;6.97;6.27;;;19.50;31.00;;;;;;5039580;28;20181;-77
2022/03/09 12:09:09;;;;;;;6.40;5.80;;;19.40;30.20;;;;;;5046675;28;20527;-77
2022/03/09 12:12:05;;;;;;;8.30;7.37;;;19.30;31.00;;;;;;5044307;28;20606;-76
2022/03/09 12:15:00;;;;;;;8.13;6.90;;;19.20;30.40;;;;;;5044628;28;20585;-76
2022/03/09 12:17:50;;;;;;;7.13;6.53;;;19.10;29.90;;;;;;5041406;28;20689;-76
2022/03/09 12:20:29;;;;;;;6.20;5.60;;;18.90;29.90;;;;;;5041412;28;20699;-76
2022/03/09 12:23:01;;;;;;;7.93;6.93;;;18.90;31.10;;;;;;5047376;28;20664;-76
2022/03/09 12:25:46;;;;;;;7.20;6.50;;;19.00;31.20;;;;;;5041948;28;20600;-76
2022/03/09 12:28:28;;;;;;;7.00;6.00;;;19.10;31.50;;;;;;5045779;28;20603;-76
2022/03/09 12:31:16;;;;;;;8.20;6.90;;;19.30;30.80;;;;;;5019386;28;20575;-76
2022/03/09 12:33:47;;;;;;;7.40;6.67;;;19.20;30.00;;;;;;5041094;28;20926;-76
2022/03/09 12:36:18;;;;;;;8.53;7.23;;;19.30;31.20;;;;;;5043045;28;20659;-77
2022/03/09 12:38:54;;;;;;;7.70;6.90;;;19.30;30.70;;;;;;5042842;28;20614;-75
2022/03/09 12:41:26;;;;;;;9.20;7.60;;;19.30;31.20;;;;;;5044756;28;20971;-76
2022/03/09 12:43:57;;;;;;;7.53;6.83;;;19.20;30.90;;;;;;5044394;28;20575;-74
2022/03/09 12:46:23;;;;;;;9.40;7.50;;;19.20;30.80;;;;;;5040492;28;20935;-75
2022/03/09 12:48:49;;;;;;;7.30;6.60;;;19.30;30.90;;;;;;5042199;28;20577;-75
2022/03/09 12:51:15;;;;;;;6.97;6.30;;;19.20;30.70;;;;;;5040539;28;20575;-75
2022/03/09 12:53:42;;;;;;;7.70;5.93;;;19.20;30.60;;;;;;5042728;28;20678;-75
2022/03/09 12:56:14;;;;;;;9.90;8.90;;;19.00;29.50;;;;;;5044333;28;20208;-75
2022/03/09 12:58:40;;;;;;;7.77;6.53;;;18.80;29.80;;;;;;5044491;28;20579;-76